地図

経路データ

SID SEASON NUMBER BASIN SUBBASIN NAME ISO_TIME NATURE LAT LON WMO_WIND WMO_PRES WMO_AGENCY TRACK_TYPE DIST2LAND LANDFALL IFLAG USA_AGENCY USA_ATCF_ID USA_LAT USA_LON USA_RECORD USA_STATUS USA_WIND USA_PRES USA_SSHS USA_R34_NE USA_R34_SE USA_R34_SW USA_R34_NW USA_R50_NE USA_R50_SE USA_R50_SW USA_R50_NW USA_R64_NE USA_R64_SE USA_R64_SW USA_R64_NW USA_POCI USA_ROCI USA_RMW USA_EYE TOKYO_LAT TOKYO_LON TOKYO_GRADE TOKYO_WIND TOKYO_PRES TOKYO_R50_DIR TOKYO_R50_LONG TOKYO_R50_SHORT TOKYO_R30_DIR TOKYO_R30_LONG TOKYO_R30_SHORT TOKYO_LAND CMA_LAT CMA_LON CMA_CAT CMA_WIND CMA_PRES HKO_LAT HKO_LON HKO_CAT HKO_WIND HKO_PRES NEWDELHI_LAT NEWDELHI_LON NEWDELHI_GRADE NEWDELHI_WIND NEWDELHI_PRES NEWDELHI_CI NEWDELHI_DP NEWDELHI_POCI REUNION_LAT REUNION_LON REUNION_TYPE REUNION_WIND REUNION_PRES REUNION_TNUM REUNION_CI REUNION_RMW REUNION_R34_NE REUNION_R34_SE REUNION_R34_SW REUNION_R34_NW REUNION_R50_NE REUNION_R50_SE REUNION_R50_SW REUNION_R50_NW REUNION_R64_NE REUNION_R64_SE REUNION_R64_SW REUNION_R64_NW BOM_LAT BOM_LON BOM_TYPE BOM_WIND BOM_PRES BOM_TNUM BOM_CI BOM_RMW BOM_R34_NE BOM_R34_SE BOM_R34_SW BOM_R34_NW BOM_R50_NE BOM_R50_SE BOM_R50_SW BOM_R50_NW BOM_R64_NE BOM_R64_SE BOM_R64_SW BOM_R64_NW BOM_ROCI BOM_POCI BOM_EYE BOM_POS_METHOD BOM_PRES_METHOD NADI_LAT NADI_LON NADI_CAT NADI_WIND NADI_PRES WELLINGTON_LAT WELLINGTON_LON WELLINGTON_WIND WELLINGTON_PRES DS824_LAT DS824_LON DS824_STAGE DS824_WIND DS824_PRES TD9636_LAT TD9636_LON TD9636_STAGE TD9636_WIND TD9636_PRES TD9635_LAT TD9635_LON TD9635_WIND TD9635_PRES TD9635_ROCI NEUMANN_LAT NEUMANN_LON NEUMANN_CLASS NEUMANN_WIND NEUMANN_PRES MLC_LAT MLC_LON MLC_CLASS MLC_WIND MLC_PRES USA_GUST BOM_GUST BOM_GUST_PER REUNION_GUST REUNION_GUST_PER USA_SEAHGT USA_SEARAD_NE USA_SEARAD_SE USA_SEARAD_SW USA_SEARAD_NW STORM_SPEED STORM_DIR
1990012S12131 1990 5 SI WA SAM 1990-01-11 12:00:00 TS -12.0000 130.500 25 1003 bom main 22 22 ______O_____O_ -1 -12.0000 130.500 20 25 1003 1.50000 3 6 -12.0000 130.500 TC 25 1003 12 236
1990012S12131 1990 5 SI WA SAM 1990-01-11 15:00:00 TS -12.3402 129.990 main 57 54 ______P_____P_ -1 -12.3402 129.990 20 25 1003 -12.3402 129.990 TC 25 1003 12 238
1990012S12131 1990 5 SI WA SAM 1990-01-11 18:00:00 TS -12.6000 129.500 25 1003 bom main 79 79 ______O_____O_ -1 -12.6000 129.500 20 25 1003 1.50000 3 6 -12.6000 129.500 TC 25 1003 10 247
1990012S12131 1990 5 SI WA SAM 1990-01-11 21:00:00 TS -12.7299 129.042 main 123 123 ______P_____P_ -1 -12.7299 129.042 20 25 1003 -12.7299 129.042 TC 25 1003 9 257
1990012S12131 1990 5 SI WA SAM 1990-01-12 00:00:00 TS -12.8000 128.600 25 1003 bom main 151 150 ______O_____O_ -1 -12.8000 128.600 20 25 1003 1.50000 3 6 -12.8000 128.600 TC 25 1003 9 259
1990012S12131 1990 5 SI WA SAM 1990-01-12 03:00:00 TS -12.8999 128.157 main 150 117 ______P_____P_ -1 -12.8999 128.157 20 25 1002 -12.8999 128.157 TC 25 1002 9 257
1990012S12131 1990 5 SI WA SAM 1990-01-12 06:00:00 TS -13.0000 127.733 25 1002 bom main 110 81 O_____O_____O_ jtwc_sh SH101990 -13.0000 128.000 20 -1 -13.0000 127.700 20 25 1002 1.50000 3 6 -13.0000 127.700 TC 25 1002 9 256
1990012S12131 1990 5 SI WA SAM 1990-01-12 09:00:00 TS -13.1275 127.232 main 79 67 P_____P_____P_ SH101990 -13.2079 127.300 20 -1 -13.1074 127.215 20 25 1001 -13.1074 127.215 TC 25 1001 11 256
1990012S12131 1990 5 SI WA SAM 1990-01-12 12:00:00 TS -13.2545 126.673 25 1001 bom main 60 60 O_____O_____O_ jtwc_sh SH101990 -13.4000 126.600 20 -1 -13.2000 126.700 20 25 1001 2.00000 3 6 -13.2000 126.700 TC 25 1001 12 258
1990012S12131 1990 5 SI WA SAM 1990-01-12 15:00:00 TS -13.3599 126.067 main 67 67 P_____P_____P_ SH101990 -13.5648 125.900 20 -1 -13.2575 126.150 20 27 1000 -13.2575 126.150 TC 27 1000 12 261
1990012S12131 1990 5 SI WA SAM 1990-01-12 18:00:00 TS -13.4333 125.467 30 999 bom main 93 93 O_____O_____O_ jtwc_sh SH101990 -13.7000 125.200 20 -1 -13.3000 125.600 20 30 999 2.50000 97 3 6 -13.3000 125.600 TC 30 999 12 262
1990012S12131 1990 5 SI WA SAM 1990-01-12 21:00:00 TS -13.5124 124.890 main 117 117 P_____P_____P_ SH101990 -13.8225 124.470 22 -1 -13.3573 125.100 20 30 998 172 -13.3573 125.100 TC 32 998 11 263
1990012S12131 1990 5 SI WA SAM 1990-01-13 00:00:00 TS -13.5667 124.333 30 997 bom main 148 148 O_____O_____O_ jtwc_sh SH101990 -13.9000 123.800 25 -1 -13.4000 124.600 20 30 997 2.50000 247 3 6 -13.4000 124.600 TC 35 997 11 267
1990012S12131 1990 5 SI WA SAM 1990-01-13 03:00:00 TS -13.5741 123.782 main 188 188 P_____P_____P_ SH101990 -13.9222 123.262 25 -1 -13.4000 124.042 20 32 996 166 -13.4000 124.042 TC 37 996 10 270
1990012S12131 1990 5 SI WA SAM 1990-01-13 06:00:00 TS -13.5667 123.267 35 995 bom main 233 233 O_____O_____O_ jtwc_sh SH101990 -13.9000 122.800 25 -1 -13.4000 123.500 30 35 995 3.00000 85 3 6 -13.4000 123.500 TC 40 995 10 270
1990012S12131 1990 5 SI WA SAM 1990-01-13 09:00:00 TS -13.5757 122.794 main 280 280 P_____P_____P_ SH101990 -13.8724 122.328 27 -1 -13.4274 123.027 30 37 994 109 -13.4274 123.027 TC 40 994 9 268
1990012S12131 1990 5 SI WA SAM 1990-01-13 12:00:00 TS -13.6000 122.367 40 993 bom main 310 310 O_____V_____O_ jtwc_sh SH101990 -13.8000 121.900 30 -1 -13.5000 122.600 30 40 993 3.00000 134 3 6 -13.5000 122.600 TC 40 993 8 265
1990012S12131 1990 5 SI WA SAM 1990-01-13 15:00:00 TS -13.6449 121.968 main 338 331 P_____P_____P_ SH101990 -13.6499 121.520 30 -1 -13.6424 122.193 30 42 989 159 -13.6424 122.193 TC 47 989 8 262
1990012S12131 1990 5 SI WA SAM 1990-01-13 18:00:00 TS -13.7000 121.600 45 986 bom main 343 343 O_____O_____O_ jtwc_sh SH101990 -13.5000 121.200 30 -1 -13.8000 121.800 30 45 986 3.00000 184 3 6 -13.8000 121.800 TC 55 986 7 262
1990012S12131 1990 5 SI WA SAM 1990-01-13 21:00:00 TS -13.7423 121.265 main 357 353 P_____P_____P_ SH101990 -13.4124 120.950 32 -1 -13.9073 121.422 30 47 984 184 -13.9073 121.422 TC 57 984 7 262
1990012S12131 1990 5 SI WA SAM 1990-01-14 00:00:00 TS -13.8000 120.900 50 982 bom main 370 370 O_____O_____O_ jtwc_sh SH101990 -13.4000 120.700 35 0 -14.0000 121.000 30 50 982 3.50000 184 3 6 -14.0000 121.000 TC 60 982 8 260
1990012S12131 1990 5 SI WA SAM 1990-01-14 03:00:00 TS -13.8800 120.444 main 395 395 P_____P_____P_ SH101990 -13.4549 120.387 35 0 -14.0925 120.472 30 52 980 211 -14.0925 120.472 TC 62 980 10 258
1990012S12131 1990 5 SI WA SAM 1990-01-14 06:00:00 TS -14.0000 119.933 55 978 bom main 419 419 O_____O_____O_ jtwc_sh SH101990 -13.6000 120.000 35 0 -14.2000 119.900 30 55 978 4.00000 238 3 6 -14.2000 119.900 TC 65 978 10 254
1990012S12131 1990 5 SI WA SAM 1990-01-14 09:00:00 TS -14.1656 119.425 main 449 449 P_____P_____P_ SH101990 -13.8124 119.545 37 0 -14.3423 119.365 30 57 975 238 -14.3423 119.365 TC 67 975 11 250
1990012S12131 1990 5 SI WA SAM 1990-01-14 12:00:00 TS -14.3667 118.867 60 972 bom main 473 473 O_____O_____O_ jtwc_sh SH101990 -14.1000 119.000 40 0 -14.5000 118.800 30 60 972 4.00000 238 5 4 6 -14.5000 118.800 TC 70 972 12 250
1990012S12131 1990 5 SI WA SAM 1990-01-14 15:00:00 TS -14.5908 118.227 main 520 520 P_____P_____P_ SH101990 -14.4576 118.365 42 0 -14.6575 118.158 30 60 972 275 -14.6575 118.158 TC 70 972 13 251
1990012S12131 1990 5 SI WA SAM 1990-01-14 18:00:00 TS -14.8000 117.567 60 972 bom main 564 564 O_____O_____O_ jtwc_sh SH101990 -14.8000 117.700 45 0 -14.8000 117.500 30 60 972 4.00000 313 3 6 -14.8000 117.500 TC 70 972 13 254
1990012S12131 1990 5 SI WA SAM 1990-01-14 21:00:00 TS -14.9406 116.959 main 617 616 P_____P_____P_ SH101990 -15.0373 117.092 45 0 -14.8923 116.892 30 60 972 318 -14.8923 116.892 TC 70 972 12 257
1990012S12131 1990 5 SI WA SAM 1990-01-15 00:00:00 TS -15.0667 116.367 60 972 bom main 616 608 O_____O_____O_ jtwc_sh SH101990 -15.2000 116.500 45 0 -15.0000 116.300 30 60 972 4.00000 323 3 6 -15.0000 116.300 TC 70 972 12 256
1990012S12131 1990 5 SI WA SAM 1990-01-15 03:00:00 TS -15.2307 115.757 main 611 600 P_____P_____P_ SH101990 -15.3223 115.900 45 0 -15.1850 115.685 30 57 974 258 -15.1850 115.685 TC 67 974 12 254
1990012S12131 1990 5 SI WA SAM 1990-01-15 06:00:00 TS -15.4000 115.167 55 976 bom main 603 598 O_____O_____O_ jtwc_sh SH101990 -15.4000 115.300 45 0 -15.4000 115.100 30 55 976 4.00000 193 3 6 -15.4000 115.100 TC 65 976 11 254
1990012S12131 1990 5 SI WA SAM 1990-01-15 09:00:00 TS -15.5498 114.621 main 612 601 P_____P_____P_ SH101990 -15.4349 114.692 45 0 -15.6073 114.585 30 55 976 193 -15.6073 114.585 TC 65 976 11 254
1990012S12131 1990 5 SI WA SAM 1990-01-15 12:00:00 TS -15.7000 114.100 55 976 bom main 613 613 O_____O_____O_ jtwc_sh SH101990 -15.5000 114.100 45 0 -15.8000 114.100 30 55 976 4.00000 193 3 6 -15.8000 114.100 TC 65 976 11 253
1990012S12131 1990 5 SI WA SAM 1990-01-15 15:00:00 TS -15.8640 113.578 main 619 619 P_____P_____P_ SH101990 -15.6625 113.520 47 0 -15.9648 113.607 30 55 976 204 -15.9648 113.607 TC 65 976 11 251
1990012S12131 1990 5 SI WA SAM 1990-01-15 18:00:00 TS -16.0333 113.067 55 976 bom main 638 634 O_____O_____O_ jtwc_sh SH101990 -15.9000 113.000 50 0 -16.1000 113.100 30 55 976 4.00000 215 4 6 -16.1000 113.100 TC 65 976 10 251
1990012S12131 1990 5 SI WA SAM 1990-01-15 21:00:00 TS -16.1924 112.559 main 648 646 P_____P_____P_ SH101990 -16.1924 112.563 50 0 -16.1924 112.557 30 55 976 210 -16.1924 112.557 TC 65 976 10 251
1990012S12131 1990 5 SI WA SAM 1990-01-16 00:00:00 TS -16.3667 112.067 55 976 bom main 646 643 O_____O_____O_ jtwc_sh SH101990 -16.5000 112.200 50 0 -16.3000 112.000 30 55 976 4.00000 205 4 6 -16.3000 112.000 TC 65 976 10 248
1990012S12131 1990 5 SI WA SAM 1990-01-16 03:00:00 TS -16.5682 111.597 main 644 641 P_____P_____P_ SH101990 -16.7648 111.907 50 0 -16.4699 111.442 30 55 976 199 -16.4699 111.442 TC 65 976 10 244
1990012S12131 1990 5 SI WA SAM 1990-01-16 06:00:00 TS -16.8000 111.133 55 976 bom main 646 641 O_____O_____O_ jtwc_sh SH101990 -17.0000 111.600 50 0 -16.7000 110.900 30 55 976 4.00000 193 4 6 -16.7000 110.900 TC 65 976 10 242
1990012S12131 1990 5 SI WA SAM 1990-01-16 09:00:00 TS -17.0565 110.655 main 638 638 P_____P_____P_ SH101990 -17.2149 111.195 47 0 -16.9774 110.385 30 57 975 193 -16.9774 110.385 TC 67 975 11 240
1990012S12131 1990 5 SI WA SAM 1990-01-16 12:00:00 TS -17.3333 110.167 60 974 bom main 650 648 O_____O_____O_ jtwc_sh SH101990 -17.4000 110.700 45 0 -17.3000 109.900 30 60 974 4.00000 193 4 6 -17.3000 109.900 TC 70 974 11 239
1990012S12131 1990 5 SI WA SAM 1990-01-16 15:00:00 TS -17.6192 109.654 main 658 657 P_____P_____P_ SH101990 -17.5576 110.107 45 0 -17.6499 109.427 30 60 974 231 -17.6499 109.427 TC 70 974 11 239
1990012S12131 1990 5 SI WA SAM 1990-01-16 18:00:00 TS -17.9000 109.167 60 974 bom main 672 672 O_____O_____O_ jtwc_sh SH101990 -17.7000 109.500 45 0 -18.0000 109.000 30 60 974 4.00000 269 3 6 -18.0000 109.000 TC 70 974 10 239
1990012S12131 1990 5 SI WA SAM 1990-01-16 21:00:00 TS -18.1499 108.741 main 697 691 P_____P_____P_ SH101990 -17.8349 108.955 45 0 -18.3073 108.635 30 62 973 247 -18.3073 108.635 TC 70 973 9 237
1990012S12131 1990 5 SI WA SAM 1990-01-17 00:00:00 TS -18.4000 108.367 65 972 bom main 703 703 O_____O_____O_ jtwc_sh SH101990 -18.0000 108.500 45 0 -18.6000 108.300 40 65 972 4.50000 226 3 6 -18.6000 108.300 TC 70 972 9 232
1990012S12131 1990 5 SI WA SAM 1990-01-17 03:00:00 TS -18.6883 108.013 main 720 720 P_____P_____P_ SH101990 -18.2348 108.155 47 0 -18.9150 107.943 40 67 971 247 -18.9150 107.943 TC 72 971 9 228
1990012S12131 1990 5 SI WA SAM 1990-01-17 06:00:00 TS -18.9667 107.700 70 970 bom main 731 731 O_____O_____O_ jtwc_sh SH101990 -18.5000 107.900 50 0 -19.2000 107.600 40 70 970 4.50000 269 3 6 -19.2000 107.600 TC 75 970 8 228
1990012S12131 1990 5 SI WA SAM 1990-01-17 09:00:00 TS -19.1883 107.418 main 747 747 P_____P_____P_ SH101990 -18.7499 107.685 50 0 -19.4074 107.285 40 70 969 258 -19.4074 107.285 TC 75 969 7 229
1990012S12131 1990 5 SI WA SAM 1990-01-17 12:00:00 TS -19.4000 107.167 70 968 bom main 754 754 O_____V_____O_ jtwc_sh SH101990 -19.0000 107.500 50 0 -19.6000 107.000 40 70 968 4.50000 247 3 6 -19.6000 107.000 TC 75 968 6 226
1990012S12131 1990 5 SI WA SAM 1990-01-17 15:00:00 TS -19.6275 106.928 main 771 766 P_____P_____P_ SH101990 -19.2425 107.300 50 0 -19.8199 106.742 40 70 967 236 -19.8199 106.742 TC 77 967 7 221
1990012S12131 1990 5 SI WA SAM 1990-01-17 18:00:00 TS -19.9000 106.700 70 966 bom main 775 771 O_____O_____O_ jtwc_sh SH101990 -19.5000 107.100 50 0 -20.1000 106.500 40 70 966 4.50000 226 3 6 -20.1000 106.500 TC 80 966 8 215
1990012S12131 1990 5 SI WA SAM 1990-01-17 21:00:00 TS -20.2492 106.459 main 782 782 P_____P_____P_ SH101990 -19.7925 106.907 50 0 -20.4775 106.235 40 70 966 242 -20.4775 106.235 TC 80 966 9 211
1990012S12131 1990 5 SI WA SAM 1990-01-18 00:00:00 TS -20.6333 106.233 70 966 bom main 796 790 O_____O_____O_ jtwc_sh SH101990 -20.1000 106.700 50 0 -20.9000 106.000 40 70 966 4.50000 259 3 6 -20.9000 106.000 TC 80 966 8 208
1990012S12131 1990 5 SI WA SAM 1990-01-18 03:00:00 TS -20.9975 106.042 main 804 799 P_____P_____P_ SH101990 -20.3925 106.443 47 0 -21.2999 105.842 40 67 966 264 -21.2999 105.842 TC 80 966 8 205
1990012S12131 1990 5 SI WA SAM 1990-01-18 06:00:00 TS -21.3667 105.867 65 966 bom main 804 804 O_____O_____O_ jtwc_sh SH101990 -20.7000 106.200 45 0 -21.7000 105.700 40 65 966 4.50000 269 3 6 -21.7000 105.700 TC 80 966 8 204
1990012S12131 1990 5 SI WA SAM 1990-01-18 09:00:00 TS -21.7625 105.673 main 817 817 P_____P_____P_ SH101990 -21.0424 106.035 45 0 -22.1225 105.493 40 62 968 215 -22.1225 105.493 TC 77 968 8 204
1990012S12131 1990 5 SI WA SAM 1990-01-18 12:00:00 TS -22.1333 105.500 60 970 bom main 834 833 O_____O_____O_ jtwc_sh SH101990 -21.4000 105.900 45 0 -22.5000 105.300 30 60 970 4.00000 161 3 6 -22.5000 105.300 TC 75 970 7 203
1990012S12131 1990 5 SI WA SAM 1990-01-18 15:00:00 TS -22.4266 105.366 main 842 841 P_____P_____P_ SH101990 -21.7500 105.742 42 0 -22.7650 105.177 30 57 972 226 -22.7650 105.177 TC 72 972 6 201
1990012S12131 1990 5 SI WA SAM 1990-01-18 18:00:00 TS -22.7000 105.267 55 975 bom main 846 846 O_____O_____O_ jtwc_sh SH101990 -22.1000 105.600 40 0 -23.0000 105.100 30 55 975 4.00000 292 3 6 -23.0000 105.100 TC 70 975 6 196
1990012S12131 1990 5 SI WA SAM 1990-01-18 21:00:00 TS -22.9942 105.187 main 848 844 P_____P_____P_ SH101990 -22.4425 105.492 40 0 -23.2700 105.035 30 52 977 292 -23.2700 105.035 TC 65 977 6 191
1990012S12131 1990 5 SI WA SAM 1990-01-19 00:00:00 TS -23.3333 105.133 50 980 bom main 852 845 O_____O_____O_ jtwc_sh SH101990 -22.8000 105.400 40 0 -23.6000 105.000 30 50 980 4.00000 292 3 6 -23.6000 105.000 TC 60 980 8 187
1990012S12131 1990 5 SI WA SAM 1990-01-19 03:00:00 TS -23.7467 105.090 main 845 840 P_____P_____P_ SH101990 -23.1850 105.285 37 0 -24.0275 104.992 30 47 982 269 -24.0275 104.992 TC 57 982 9 184
1990012S12131 1990 5 SI WA SAM 1990-01-19 06:00:00 TS -24.2000 105.067 45 985 bom main 840 839 O_____O_____O_ jtwc_sh SH101990 -23.6000 105.200 35 0 -24.5000 105.000 30 45 985 3.50000 247 3 6 -24.5000 105.000 TC 55 985 9 183
1990012S12131 1990 5 SI WA SAM 1990-01-19 09:00:00 TS -24.6650 105.057 main 837 829 P_____P_____P_ SH101990 -24.0500 105.185 32 -1 -24.9725 104.993 30 42 987 231 -24.9725 104.993 TC 50 987 9 0
1990012S12131 1990 5 SI WA SAM 1990-01-19 12:00:00 TS -25.1000 105.067 40 990 bom main 829 824 O_____O_____O_ jtwc_sh SH101990 -24.5000 105.200 30 -1 -25.4000 105.000 30 40 990 3.00000 215 3 6 -25.4000 105.000 TC 45 990 8 0
1990012S12131 1990 5 SI WA SAM 1990-01-19 15:00:00 TS -25.4633 105.085 main 822 819 P_____P_____P_ SH101990 -24.9150 105.200 27 -1 -25.7375 105.028 30 37 992 207 -25.7375 105.028 TC 42 992 7 176
1990012S12131 1990 5 SI WA SAM 1990-01-19 18:00:00 TS -25.8091 105.127 35 994 bom main 819 807 O_____O_____O_ jtwc_sh SH101990 -25.3000 105.200 25 -1 -26.0000 105.100 30 35 994 3.00000 199 3 6 -26.0000 105.100 TC 40 994 6 171
1990012S12131 1990 5 SI WA SAM 1990-01-19 21:00:00 TS -26.0974 105.198 main 807 786 P_____P_____P_ SH101990 -25.6575 105.200 25 -1 -26.2073 105.198 30 32 995 175 -26.2073 105.198 TC 37 995 6 158
1990012S12131 1990 5 SI WA SAM 1990-01-20 00:00:00 TS -26.3556 105.378 30 997 bom main 786 756 O_____O_____O_ jtwc_sh SH101990 -26.0000 105.200 25 -1 -26.4000 105.400 20 30 997 2.50000 151 3 6 -26.4000 105.400 TC 35 997 8 138
1990012S12131 1990 5 SI WA SAM 1990-01-20 03:00:00 TS -26.6651 105.762 main 746 708 ______P_____P_ SH101990 -1 -26.6651 105.762 20 27 998 151 -26.6651 105.762 TC 32 998 9 127
1990012S12131 1990 5 SI WA SAM 1990-01-20 06:00:00 TS -26.9000 106.200 25 999 bom main 708 669 ______O_____O_ -1 -26.9000 106.200 20 25 999 2.00000 151 3 6 -26.9000 106.200 TC 30 999 8 116
1990012S12131 1990 5 SI WA SAM 1990-01-20 09:00:00 TS -27.0147 106.578 main 669 631 ______P_____P_ -1 -27.0147 106.578 20 25 1000 -27.0147 106.578 TC 27 1000 7 106
1990012S12131 1990 5 SI WA SAM 1990-01-20 12:00:00 TS -27.1000 107.000 25 1002 bom main 631 584 ______O_____O_ -1 -27.1000 107.000 20 25 1002 1.50000 3 6 -27.1000 107.000 TC 25 1002 9 105
1990012S12131 1990 5 SI WA SAM 1990-01-20 15:00:00 TS -27.2427 107.542 main 584 529 ______P_____P_ -1 -27.2427 107.542 20 25 1002 -27.2427 107.542 TC 25 1002 10 107
1990012S12131 1990 5 SI WA SAM 1990-01-20 18:00:00 TS -27.4000 108.100 25 1002 bom main 529 484 ______O_____O_ -1 -27.4000 108.100 20 25 1002 1.50000 3 6 -27.4000 108.100 TC 25 1002 10 109
1990012S12131 1990 5 SI WA SAM 1990-01-20 21:00:00 TS -27.5525 108.577 main 487 453 ______P_____P_ -1 -27.5525 108.577 20 25 1002 -27.5525 108.577 TC 25 1002 9 111
1990012S12131 1990 5 SI WA SAM 1990-01-21 00:00:00 TS -27.7000 109.000 25 1003 bom main 453 ______O_____O_ -1 -27.7000 109.000 20 25 1003 1.50000 3 6 -27.7000 109.000 TC 25 1003 8 112

IBTrACS Databaseについて

本データベースは、米国NOAAが公開する1842年以降の世界の熱帯低気圧のベストトラックデータアーカイブInternational Best Track Archive for Climate Stewardship (IBTrACS)を、ウェブで閲覧しやすい形式に変換したものです。

最終更新日:2021-10-08